Easington, United Kingdom
Current Conditions -  °F | °C
As of 2:50 AM on Tuesday 27 Jan 2015 (Local Time) from EGXS Reporting Station
Clear Clear  
Wind Chill: 30°   Ceiling: Unl
Heat Index: 37°   Visibility: 6mi
Dew Point: 34°   Wind: 12mph
Humidity: 87%   Direction: 270°W
Pressure: 30.27"   Gusts: NA
Location:  53.65°N, 0.13°E
Report Text: EGXS 270250Z AUTO 27010KT 9999 // NCD 03/01 Q1025
Loading
Personal Weather Stations






























Interactive Weather Map New forecast layout! Learn more

10-Day Weather Forecast

Advertisements
Track Severe Weather on mobile